createdAt,value
2018-12-16T00:01:55.390Z,-1.80
2018-12-16T00:04:23.881Z,-1.80
2018-12-16T00:06:52.398Z,-1.70
2018-12-16T00:09:21.595Z,-1.80
2018-12-16T00:11:50.085Z,-1.80
2018-12-16T00:14:23.444Z,-1.70
2018-12-16T00:16:52.013Z,-1.80
2018-12-16T00:19:20.466Z,-1.70
2018-12-16T00:21:48.883Z,-1.60
2018-12-16T00:24:17.357Z,-1.60
2018-12-16T00:26:57.015Z,-1.60
2018-12-16T00:29:25.509Z,-1.70
2018-12-16T00:31:53.985Z,-1.60
2018-12-16T00:34:22.397Z,-1.60
2018-12-16T00:36:50.838Z,-1.60
2018-12-16T00:39:19.253Z,-1.60
2018-12-16T00:41:47.670Z,-1.70
2018-12-16T00:44:16.062Z,-1.70
2018-12-16T00:46:44.494Z,-1.70
2018-12-16T00:49:12.889Z,-1.70
2018-12-16T00:51:41.303Z,-1.70
2018-12-16T00:54:09.697Z,-1.70
2018-12-16T00:56:38.121Z,-1.70
2018-12-16T00:59:06.511Z,-1.70
2018-12-16T01:01:35.029Z,-1.70
2018-12-16T01:04:03.442Z,-1.70
2018-12-16T01:06:31.961Z,-1.70
2018-12-16T01:09:00.347Z,-1.60
2018-12-16T01:11:28.766Z,-1.70
2018-12-16T01:13:57.165Z,-1.60
2018-12-16T01:16:25.571Z,-1.60
2018-12-16T01:18:53.974Z,-1.60
2018-12-16T01:21:22.389Z,-1.60
2018-12-16T01:23:50.798Z,-1.50
2018-12-16T01:26:19.212Z,-1.50
2018-12-16T01:28:47.699Z,-1.60
2018-12-16T01:31:16.185Z,-1.50
2018-12-16T01:33:44.705Z,-1.50
2018-12-16T01:36:13.164Z,-1.60
2018-12-16T01:38:41.623Z,-1.50
2018-12-16T01:41:10.136Z,-1.50
2018-12-16T01:43:38.591Z,-1.50
2018-12-16T01:46:07.080Z,-1.50
2018-12-16T01:48:35.504Z,-1.50
2018-12-16T01:51:04.001Z,-1.40
2018-12-16T01:53:32.448Z,-1.40
2018-12-16T01:56:00.953Z,-1.40
2018-12-16T01:58:29.400Z,-1.50
2018-12-16T02:00:57.920Z,-1.50
2018-12-16T02:03:26.375Z,-1.40
2018-12-16T02:05:54.844Z,-1.40
2018-12-16T02:08:23.308Z,-1.30
2018-12-16T02:10:51.802Z,-1.30
2018-12-16T02:13:20.245Z,-1.30
2018-12-16T02:15:48.720Z,-1.20
2018-12-16T02:18:17.163Z,-1.20
2018-12-16T02:20:45.620Z,-1.30
2018-12-16T02:23:14.383Z,-1.30
2018-12-16T02:25:42.836Z,-1.30
2018-12-16T02:28:11.262Z,-1.20
2018-12-16T02:30:39.720Z,-1.20
2018-12-16T02:33:09.112Z,-1.20
2018-12-16T02:35:37.572Z,-1.10
2018-12-16T02:38:06.171Z,-1.20
2018-12-16T02:40:34.645Z,-1.20
2018-12-16T02:43:03.096Z,-1.30
2018-12-16T02:45:31.552Z,-1.30
2018-12-16T02:48:00.017Z,-1.20
2018-12-16T02:50:28.446Z,-1.20
2018-12-16T02:53:04.323Z,-1.20
2018-12-16T02:55:27.388Z,-1.20
2018-12-16T02:57:55.879Z,-1.10
2018-12-16T03:00:24.439Z,-1.10
2018-12-16T03:02:52.962Z,-1.10
2018-12-16T03:05:21.502Z,-1.00
2018-12-16T03:07:49.955Z,-1.00
2018-12-16T03:10:18.399Z,-0.90
2018-12-16T03:12:46.869Z,-0.90
2018-12-16T03:15:15.328Z,-0.90
2018-12-16T03:17:43.783Z,-0.80
2018-12-16T03:20:12.229Z,-0.80
2018-12-16T03:22:40.692Z,-0.80
2018-12-16T03:25:09.142Z,-0.80
2018-12-16T03:27:37.613Z,-0.80
2018-12-16T03:30:07.752Z,-0.80
2018-12-16T03:32:36.210Z,-0.80
2018-12-16T03:35:05.023Z,-0.80
2018-12-16T03:37:33.492Z,-0.80
2018-12-16T03:40:01.948Z,-0.80
2018-12-16T03:42:30.550Z,-0.80
2018-12-16T03:44:59.074Z,-0.80
2018-12-16T03:47:27.540Z,-0.80
2018-12-16T03:49:55.978Z,-0.80
2018-12-16T03:52:24.445Z,-0.80
2018-12-16T03:54:52.878Z,-0.80
2018-12-16T03:57:21.354Z,-0.80
2018-12-16T03:59:49.920Z,-0.80
2018-12-16T04:02:18.371Z,-0.80
2018-12-16T04:04:46.817Z,-0.70
2018-12-16T04:07:15.286Z,-0.70
2018-12-16T04:09:43.725Z,-0.70
2018-12-16T04:12:12.193Z,-0.70
2018-12-16T04:14:41.428Z,-0.70
2018-12-16T04:17:10.032Z,-0.70
2018-12-16T04:19:38.472Z,-0.70
2018-12-16T04:22:06.932Z,-0.70
2018-12-16T04:24:35.372Z,-0.70
2018-12-16T04:27:03.911Z,-0.70
2018-12-16T04:29:32.343Z,-0.70
2018-12-16T04:32:00.840Z,-0.60
2018-12-16T04:34:29.319Z,-0.70
2018-12-16T04:36:57.783Z,-0.60
2018-12-16T04:39:26.237Z,-0.60
2018-12-16T04:41:54.705Z,-0.70
2018-12-16T04:44:23.175Z,-0.70
2018-12-16T04:46:51.680Z,-0.70
2018-12-16T04:49:20.155Z,-0.80
2018-12-16T04:51:48.618Z,-0.80
2018-12-16T04:54:17.488Z,-0.90
2018-12-16T04:56:45.948Z,-1.00
2018-12-16T04:59:14.415Z,-1.10
2018-12-16T05:01:42.864Z,-1.30
2018-12-16T05:04:11.346Z,-1.20
2018-12-16T05:06:39.812Z,-1.30
2018-12-16T05:09:08.690Z,-1.40
2018-12-16T05:11:37.150Z,-1.50
2018-12-16T05:14:05.630Z,-1.50
2018-12-16T05:16:34.094Z,-1.50
2018-12-16T05:19:02.561Z,-1.60
2018-12-16T05:21:31.136Z,-1.50
2018-12-16T05:23:59.605Z,-1.50
2018-12-16T05:26:28.116Z,-1.40
2018-12-16T05:28:56.588Z,-1.50
2018-12-16T05:31:25.040Z,-1.60
2018-12-16T05:33:53.562Z,-1.50
2018-12-16T05:36:22.021Z,-1.60
2018-12-16T05:38:50.506Z,-1.60
2018-12-16T05:41:18.973Z,-1.60
2018-12-16T05:43:47.472Z,-1.60
2018-12-16T05:46:15.940Z,-1.70
2018-12-16T05:48:44.424Z,-1.60
2018-12-16T05:51:12.871Z,-1.70
2018-12-16T05:53:41.351Z,-1.70
2018-12-16T05:56:09.804Z,-1.70
2018-12-16T05:58:38.264Z,-1.70
2018-12-16T06:01:06.837Z,-1.70
2018-12-16T06:03:35.312Z,-1.70
2018-12-16T06:06:03.788Z,-1.60
2018-12-16T06:08:32.246Z,-1.70
2018-12-16T06:11:00.686Z,-1.80
2018-12-16T06:13:29.157Z,-1.80
2018-12-16T06:15:57.599Z,-1.70
2018-12-16T06:18:26.085Z,-1.70
2018-12-16T06:20:54.540Z,-1.60
2018-12-16T06:23:23.020Z,-1.60
2018-12-16T06:25:51.500Z,-1.60
2018-12-16T06:28:19.956Z,-1.70
2018-12-16T06:30:49.068Z,-1.60
2018-12-16T06:33:17.544Z,-1.60
2018-12-16T06:35:46.034Z,-1.50
2018-12-16T06:38:14.500Z,-1.50
2018-12-16T06:40:42.962Z,-1.40
2018-12-16T06:43:11.411Z,-1.40
2018-12-16T06:45:39.920Z,-1.40
2018-12-16T06:48:08.367Z,-1.50
2018-12-16T06:50:36.848Z,-1.50
2018-12-16T06:53:05.307Z,-1.50
2018-12-16T06:55:33.770Z,-1.60
2018-12-16T06:58:02.224Z,-1.50
2018-12-16T07:00:30.711Z,-1.60
2018-12-16T07:02:59.164Z,-1.50
2018-12-16T07:05:27.636Z,-1.50
2018-12-16T07:07:56.091Z,-1.40
2018-12-16T07:10:24.571Z,-1.30
2018-12-16T07:12:53.038Z,-1.30
2018-12-16T07:15:21.512Z,-1.20
2018-12-16T07:17:49.967Z,-1.20
2018-12-16T07:20:18.479Z,-1.20
2018-12-16T07:22:47.221Z,-1.20
2018-12-16T07:25:15.926Z,-1.10
2018-12-16T07:27:44.380Z,-1.10
2018-12-16T07:30:12.861Z,-1.10
2018-12-16T07:32:41.307Z,-1.00
2018-12-16T07:35:09.829Z,-1.10
2018-12-16T07:37:38.366Z,-1.00
2018-12-16T07:40:07.190Z,-1.00
2018-12-16T07:42:35.765Z,-1.00
2018-12-16T07:45:04.764Z,-0.90
2018-12-16T07:47:33.246Z,-0.80
2018-12-16T07:50:01.837Z,-0.80
2018-12-16T07:52:30.387Z,-0.80
2018-12-16T07:54:58.846Z,-0.80
2018-12-16T07:57:27.304Z,-0.80
2018-12-16T07:59:55.780Z,-0.80
2018-12-16T08:02:24.234Z,-0.70
2018-12-16T08:04:52.988Z,-0.70
2018-12-16T08:07:21.435Z,-0.70
2018-12-16T08:09:49.903Z,-0.60
2018-12-16T08:12:18.357Z,-0.50
2018-12-16T08:14:46.846Z,-0.50
2018-12-16T08:17:15.297Z,-0.40
2018-12-16T08:19:43.763Z,-0.50
2018-12-16T08:22:12.211Z,-0.50
2018-12-16T08:24:40.679Z,-0.50
2018-12-16T08:27:09.161Z,-0.30
2018-12-16T08:29:37.636Z,-0.30
2018-12-16T08:32:06.604Z,-0.30
2018-12-16T08:34:35.091Z,-0.30
2018-12-16T08:37:03.692Z,-0.30
2018-12-16T08:39:32.154Z,-0.30
2018-12-16T08:42:00.582Z,-0.10
2018-12-16T08:44:29.047Z,-0.10
2018-12-16T08:46:57.485Z,0.00
2018-12-16T08:49:25.952Z,0.00
2018-12-16T08:51:54.399Z,0.00
2018-12-16T08:54:27.031Z,0.00
2018-12-16T08:56:53.340Z,0.00
2018-12-16T08:59:21.786Z,0.10
2018-12-16T09:01:50.256Z,0.20
2018-12-16T09:04:19.125Z,0.10
2018-12-16T09:06:47.593Z,0.30
2018-12-16T09:09:16.463Z,0.30
2018-12-16T09:11:44.935Z,0.40
2018-12-16T09:14:13.372Z,0.30
2018-12-16T09:16:41.828Z,0.20
2018-12-16T09:19:10.292Z,0.30
2018-12-16T09:21:39.046Z,0.30
2018-12-16T09:24:07.559Z,0.30
2018-12-16T09:26:36.006Z,0.50
2018-12-16T09:29:04.448Z,0.60
2018-12-16T09:31:32.950Z,0.70
2018-12-16T09:34:01.414Z,0.60
2018-12-16T09:36:29.893Z,0.50
2018-12-16T09:38:58.362Z,0.50
2018-12-16T09:41:26.847Z,0.60
2018-12-16T09:43:55.317Z,0.90
2018-12-16T09:46:23.788Z,1.00
2018-12-16T09:48:52.231Z,0.90
2018-12-16T09:51:20.712Z,0.90
2018-12-16T09:53:49.192Z,0.80
2018-12-16T09:56:17.919Z,0.80
2018-12-16T09:58:46.372Z,0.70
2018-12-16T10:01:14.856Z,0.90
2018-12-16T10:03:43.337Z,1.00
2018-12-16T10:06:11.822Z,1.00
2018-12-16T10:08:40.304Z,1.30
2018-12-16T10:11:08.783Z,1.50
2018-12-16T10:13:37.262Z,1.60
2018-12-16T10:16:05.748Z,1.60
2018-12-16T10:18:34.242Z,1.70
2018-12-16T10:21:02.792Z,1.80
2018-12-16T10:23:31.280Z,1.80
2018-12-16T10:25:59.756Z,2.00
2018-12-16T10:28:28.215Z,2.00
2018-12-16T10:30:56.675Z,1.90
2018-12-16T10:33:25.137Z,2.00
2018-12-16T10:35:53.622Z,1.80
2018-12-16T10:38:22.086Z,2.00
2018-12-16T10:40:50.628Z,1.60
2018-12-16T10:43:19.080Z,1.90
2018-12-16T10:45:47.647Z,1.70
2018-12-16T10:48:16.173Z,1.60
2018-12-16T10:50:44.639Z,1.60
2018-12-16T10:53:13.119Z,1.70
2018-12-16T10:55:41.637Z,1.70
2018-12-16T10:58:10.136Z,1.60
2018-12-16T11:00:43.946Z,1.50
2018-12-16T11:03:12.702Z,1.60
2018-12-16T11:05:41.530Z,1.60
2018-12-16T11:08:10.001Z,1.80
2018-12-16T11:10:38.498Z,1.80
2018-12-16T11:13:07.741Z,1.70
2018-12-16T11:15:36.284Z,1.60
2018-12-16T11:18:04.770Z,1.70
2018-12-16T11:20:33.314Z,1.70
2018-12-16T11:23:01.797Z,2.00
2018-12-16T11:25:30.623Z,2.20
2018-12-16T11:27:59.079Z,2.20
2018-12-16T11:30:27.523Z,2.10
2018-12-16T11:32:56.083Z,2.10
2018-12-16T11:35:24.587Z,2.30
2018-12-16T11:37:53.042Z,2.00
2018-12-16T11:40:21.491Z,2.20
2018-12-16T11:42:50.049Z,2.20
2018-12-16T11:45:18.494Z,2.20
2018-12-16T11:47:47.287Z,2.20
2018-12-16T11:50:15.720Z,2.50
2018-12-16T11:52:44.531Z,2.50
2018-12-16T11:55:13.416Z,2.40
2018-12-16T11:57:42.259Z,2.30
2018-12-16T12:00:11.426Z,2.40
2018-12-16T12:02:40.341Z,2.30
2018-12-16T12:05:09.445Z,2.40
2018-12-16T12:07:38.200Z,2.20
2018-12-16T12:10:07.855Z,2.20
2018-12-16T12:12:36.567Z,2.30
2018-12-16T12:15:05.355Z,2.10
2018-12-16T12:17:33.819Z,2.00
2018-12-16T12:20:02.339Z,2.10
2018-12-16T12:22:30.762Z,2.10
2018-12-16T12:24:59.215Z,2.00
2018-12-16T12:27:27.650Z,2.00
2018-12-16T12:29:56.102Z,2.00
2018-12-16T12:32:24.561Z,2.20
2018-12-16T12:34:53.027Z,2.00
2018-12-16T12:37:21.471Z,2.00
2018-12-16T12:39:49.964Z,2.00
2018-12-16T12:42:18.413Z,2.00
2018-12-16T12:44:46.954Z,1.90
2018-12-16T12:47:15.430Z,2.00
2018-12-16T12:49:45.159Z,2.00
2018-12-16T12:52:13.955Z,2.20
2018-12-16T12:54:42.423Z,2.20
2018-12-16T12:57:10.895Z,2.10
2018-12-16T12:59:39.494Z,2.00
2018-12-16T13:02:07.939Z,2.10
2018-12-16T13:04:36.385Z,2.20
2018-12-16T13:07:04.824Z,2.30
2018-12-16T13:09:33.291Z,2.40
2018-12-16T13:12:01.745Z,2.30
2018-12-16T13:14:30.316Z,2.40
2018-12-16T13:19:38.004Z,2.40
2018-12-16T13:22:06.481Z,2.40
2018-12-16T13:24:34.929Z,2.40
2018-12-16T13:27:03.435Z,2.50
2018-12-16T13:29:31.911Z,2.50
2018-12-16T13:32:00.346Z,2.50
2018-12-16T13:34:28.799Z,2.40
2018-12-16T13:36:57.679Z,2.40
2018-12-16T13:39:26.560Z,2.50
2018-12-16T13:41:55.504Z,2.40
2018-12-16T13:44:24.298Z,2.50
2018-12-16T13:46:53.273Z,2.50
2018-12-16T13:49:22.116Z,2.50
2018-12-16T13:51:51.109Z,2.50
2018-12-16T13:54:19.877Z,2.50
2018-12-16T13:56:48.845Z,2.50
2018-12-16T13:59:17.789Z,2.50
2018-12-16T14:01:46.611Z,2.50
2018-12-16T14:04:15.127Z,2.50
2018-12-16T14:06:43.794Z,2.50
2018-12-16T14:09:12.304Z,2.50
2018-12-16T14:11:40.735Z,2.40
2018-12-16T14:14:09.206Z,2.50
2018-12-16T14:16:37.911Z,2.50
2018-12-16T14:19:06.525Z,2.50
2018-12-16T14:21:35.274Z,2.50
2018-12-16T14:24:04.081Z,2.50
2018-12-16T14:26:33.751Z,2.50
2018-12-16T14:29:02.202Z,2.70
2018-12-16T14:31:30.646Z,2.70
2018-12-16T14:33:59.124Z,2.60
2018-12-16T14:36:28.441Z,2.50
2018-12-16T14:38:57.090Z,2.50
2018-12-16T14:41:25.554Z,2.50
2018-12-16T14:43:53.966Z,2.50
2018-12-16T14:46:22.376Z,2.50
2018-12-16T14:48:50.839Z,2.40
2018-12-16T14:51:19.264Z,2.50
2018-12-16T14:53:47.665Z,2.50
2018-12-16T14:56:16.077Z,2.50
2018-12-16T14:58:44.498Z,2.50
2018-12-16T15:01:12.893Z,2.50
2018-12-16T15:03:41.337Z,2.50
2018-12-16T15:06:09.853Z,2.50
2018-12-16T15:08:38.385Z,2.60
2018-12-16T15:11:06.798Z,2.40
2018-12-16T15:13:35.210Z,2.40
2018-12-16T15:16:03.757Z,2.40
2018-12-16T15:18:32.169Z,2.40
2018-12-16T15:21:00.593Z,2.50
2018-12-16T15:23:28.989Z,2.40
2018-12-16T15:26:02.021Z,2.40
2018-12-16T15:28:27.821Z,2.40
2018-12-16T15:30:56.214Z,2.40
2018-12-16T15:33:24.677Z,2.40
2018-12-16T15:35:53.057Z,2.30
2018-12-16T15:38:21.442Z,2.30
2018-12-16T15:40:49.880Z,2.30
2018-12-16T15:43:18.261Z,2.40
2018-12-16T15:45:46.634Z,2.40
2018-12-16T15:48:15.005Z,2.30
2018-12-16T15:50:43.405Z,2.40
2018-12-16T15:53:11.772Z,2.40
2018-12-16T15:55:40.183Z,2.40
2018-12-16T15:58:08.545Z,2.50
2018-12-16T16:00:36.925Z,2.40
2018-12-16T16:03:05.462Z,2.50
2018-12-16T16:05:35.607Z,2.50
2018-12-16T16:08:04.313Z,2.50
2018-12-16T16:10:32.704Z,2.50
2018-12-16T16:13:01.089Z,2.50
2018-12-16T16:15:29.491Z,2.50
2018-12-16T16:17:57.884Z,2.50
2018-12-16T16:20:26.269Z,2.50
2018-12-16T16:22:54.632Z,2.50
2018-12-16T16:25:23.037Z,2.50
2018-12-16T16:27:51.465Z,2.60
2018-12-16T16:30:19.900Z,2.60
2018-12-16T16:32:48.292Z,2.50
2018-12-16T16:35:16.726Z,2.40
2018-12-16T16:37:45.124Z,2.50
2018-12-16T16:40:13.747Z,2.40
2018-12-16T16:42:42.132Z,2.40
2018-12-16T16:45:10.579Z,2.40
2018-12-16T16:47:38.978Z,2.40
2018-12-16T16:50:07.518Z,2.50
2018-12-16T16:52:35.881Z,2.40
2018-12-16T16:55:04.517Z,2.40
2018-12-16T16:57:32.947Z,2.50
2018-12-16T17:00:01.492Z,2.50
2018-12-16T17:02:29.931Z,2.60
2018-12-16T17:04:58.318Z,2.60
2018-12-16T17:07:26.689Z,2.60
2018-12-16T17:09:55.091Z,2.50
2018-12-16T17:12:23.491Z,2.50
2018-12-16T17:14:51.895Z,2.50
2018-12-16T17:17:20.267Z,2.50
2018-12-16T17:19:48.668Z,2.40
2018-12-16T17:22:17.476Z,2.40
2018-12-16T17:24:46.131Z,2.30
2018-12-16T17:27:14.537Z,2.20
2018-12-16T17:29:42.968Z,2.20
2018-12-16T17:32:11.345Z,2.30
2018-12-16T17:34:39.747Z,2.20
2018-12-16T17:37:08.238Z,2.20
2018-12-16T17:39:36.687Z,2.30
2018-12-16T17:42:05.096Z,2.30
2018-12-16T17:44:33.488Z,2.20
2018-12-16T17:47:01.894Z,2.10
2018-12-16T17:49:30.409Z,2.00
2018-12-16T17:51:58.818Z,1.90
2018-12-16T17:54:27.198Z,1.90
2018-12-16T17:56:55.598Z,1.80
2018-12-16T17:59:24.008Z,1.80
2018-12-16T18:01:52.681Z,1.80
2018-12-16T18:04:21.082Z,1.80
2018-12-16T18:06:49.489Z,1.90
2018-12-16T18:09:17.890Z,2.00
2018-12-16T18:11:46.342Z,1.90
2018-12-16T18:14:14.817Z,2.00
2018-12-16T18:16:43.368Z,2.00
2018-12-16T18:19:11.747Z,2.00
2018-12-16T18:21:40.179Z,2.00
2018-12-16T18:24:08.668Z,2.00
2018-12-16T18:26:43.802Z,2.00
2018-12-16T18:29:07.493Z,2.00
2018-12-16T18:31:35.949Z,2.00
2018-12-16T18:34:04.340Z,2.10
2018-12-16T18:36:32.751Z,2.10
2018-12-16T18:39:01.148Z,2.20
2018-12-16T18:41:29.562Z,2.20
2018-12-16T18:43:58.179Z,2.20
2018-12-16T18:46:26.647Z,2.30
2018-12-16T18:48:55.147Z,2.30
2018-12-16T18:51:23.592Z,2.40
2018-12-16T18:53:51.986Z,2.50
2018-12-16T18:56:20.473Z,2.50
2018-12-16T18:58:48.929Z,2.50
2018-12-16T19:01:17.328Z,2.60
2018-12-16T19:03:45.769Z,2.60
2018-12-16T19:06:14.184Z,2.60
2018-12-16T19:08:42.574Z,2.70
2018-12-16T19:11:10.969Z,2.70
2018-12-16T19:13:39.381Z,2.70
2018-12-16T19:16:07.795Z,2.70
2018-12-16T19:18:36.198Z,2.80
2018-12-16T19:21:04.622Z,2.90
2018-12-16T19:23:33.050Z,3.00
2018-12-16T19:26:01.497Z,3.00
2018-12-16T19:28:29.885Z,3.00
2018-12-16T19:30:58.356Z,2.80
2018-12-16T19:33:26.755Z,2.70
2018-12-16T19:35:55.145Z,2.80
2018-12-16T19:38:23.675Z,2.90
2018-12-16T19:40:52.117Z,2.90
2018-12-16T19:43:20.553Z,2.90
2018-12-16T19:45:48.927Z,2.90
2018-12-16T19:48:17.367Z,2.80
2018-12-16T19:50:45.780Z,2.80
2018-12-16T19:53:14.209Z,2.90
2018-12-16T19:55:42.962Z,2.80
2018-12-16T19:58:11.900Z,2.80
2018-12-16T20:00:40.633Z,2.70
2018-12-16T20:03:09.528Z,2.70
2018-12-16T20:05:43.841Z,2.60
2018-12-16T20:08:12.888Z,2.60
2018-12-16T20:10:41.692Z,2.60
2018-12-16T20:13:10.285Z,2.60
2018-12-16T20:15:39.080Z,2.60
2018-12-16T20:18:07.862Z,2.60
2018-12-16T20:20:36.328Z,2.60
2018-12-16T20:23:04.832Z,2.60
2018-12-16T20:25:33.271Z,2.60
2018-12-16T20:28:01.688Z,2.50
2018-12-16T20:30:30.140Z,2.60
2018-12-16T20:32:58.546Z,2.60
2018-12-16T20:35:27.271Z,2.60
2018-12-16T20:37:55.908Z,2.60
2018-12-16T20:40:24.838Z,2.60
2018-12-16T20:42:53.569Z,2.70
2018-12-16T20:45:22.054Z,2.70
2018-12-16T20:47:50.458Z,2.80
2018-12-16T20:50:18.872Z,2.80
2018-12-16T20:52:47.323Z,2.80
2018-12-16T20:55:15.725Z,2.80
2018-12-16T20:57:44.154Z,2.70
2018-12-16T21:00:12.798Z,2.70
2018-12-16T21:02:41.273Z,2.70
2018-12-16T21:05:09.773Z,2.60
2018-12-16T21:07:38.307Z,2.60
2018-12-16T21:10:07.035Z,2.50
2018-12-16T21:12:40.735Z,2.50
2018-12-16T21:15:14.439Z,2.50
2018-12-16T21:17:48.145Z,2.40
2018-12-16T21:20:16.523Z,2.50
2018-12-16T21:22:44.918Z,2.50
2018-12-16T21:25:13.296Z,2.40
2018-12-16T21:27:41.698Z,2.40
2018-12-16T21:30:10.356Z,2.40
2018-12-16T21:32:38.765Z,2.40
2018-12-16T21:35:07.388Z,2.40
2018-12-16T21:37:35.831Z,2.40
2018-12-16T21:40:04.817Z,2.40
2018-12-16T21:42:33.298Z,2.40
2018-12-16T21:45:01.743Z,2.40
2018-12-16T21:47:30.169Z,2.40
2018-12-16T21:49:58.568Z,2.40
2018-12-16T21:52:26.992Z,2.40
2018-12-16T21:54:55.421Z,2.40
2018-12-16T21:57:23.858Z,2.40
2018-12-16T21:59:52.459Z,2.40
2018-12-16T22:02:20.871Z,2.40
2018-12-16T22:04:49.246Z,2.40
2018-12-16T22:07:17.650Z,2.40
2018-12-16T22:09:46.064Z,2.50
2018-12-16T22:12:14.499Z,2.40
2018-12-16T22:14:42.906Z,2.40
2018-12-16T22:17:11.351Z,2.40
2018-12-16T22:19:39.781Z,2.40
2018-12-16T22:22:08.208Z,2.30
2018-12-16T22:24:36.611Z,2.30
2018-12-16T22:27:05.066Z,2.30
2018-12-16T22:29:33.493Z,2.40
2018-12-16T22:32:01.899Z,2.40
2018-12-16T22:34:30.349Z,2.40
2018-12-16T22:36:58.741Z,2.40
2018-12-16T22:39:27.157Z,2.40
2018-12-16T22:41:55.642Z,2.40
2018-12-16T22:44:24.070Z,2.40
2018-12-16T22:46:52.480Z,2.40
2018-12-16T22:49:20.914Z,2.40
2018-12-16T22:51:49.311Z,2.40
2018-12-16T22:54:17.737Z,2.40
2018-12-16T22:56:46.138Z,2.40
2018-12-16T22:59:14.548Z,2.40
2018-12-16T23:01:42.939Z,2.40
2018-12-16T23:04:11.353Z,2.40
2018-12-16T23:06:40.182Z,2.40
2018-12-16T23:09:08.633Z,2.40
2018-12-16T23:11:37.113Z,2.40
2018-12-16T23:14:05.532Z,2.40
2018-12-16T23:16:33.941Z,2.40
2018-12-16T23:19:02.349Z,2.40
2018-12-16T23:21:30.739Z,2.40
2018-12-16T23:23:59.167Z,2.40
2018-12-16T23:26:27.555Z,2.40
2018-12-16T23:28:56.000Z,2.40
2018-12-16T23:31:24.477Z,2.30
2018-12-16T23:33:52.912Z,2.30
2018-12-16T23:36:21.319Z,2.30
2018-12-16T23:38:49.742Z,2.30
2018-12-16T23:41:18.176Z,2.20
2018-12-16T23:43:46.633Z,2.20
2018-12-16T23:46:15.065Z,2.20
2018-12-16T23:48:43.503Z,2.20
2018-12-16T23:51:11.909Z,2.10
2018-12-16T23:53:40.351Z,2.10
2018-12-16T23:56:08.759Z,2.00
2018-12-16T23:58:37.228Z,1.90
